sensor_id;sensor_type;location;lat;lon;timestamp;temperature;humidity
75621;DHT22;64574;48.506;-2.750;2023-03-04T00:00:09;6.60;67.80
75621;DHT22;64574;48.506;-2.750;2023-03-04T00:02:35;6.50;68.90
75621;DHT22;64574;48.506;-2.750;2023-03-04T00:05:00;6.50;68.90
75621;DHT22;64574;48.506;-2.750;2023-03-04T00:07:28;6.50;69.20
75621;DHT22;64574;48.506;-2.750;2023-03-04T00:09:53;6.50;68.80
75621;DHT22;64574;48.506;-2.750;2023-03-04T00:12:19;6.60;69.00
75621;DHT22;64574;48.506;-2.750;2023-03-04T00:14:44;6.50;69.10
75621;DHT22;64574;48.506;-2.750;2023-03-04T00:17:10;6.50;69.40
75621;DHT22;64574;48.506;-2.750;2023-03-04T00:19:36;6.50;69.30
75621;DHT22;64574;48.506;-2.750;2023-03-04T00:22:02;6.40;69.70
75621;DHT22;64574;48.506;-2.750;2023-03-04T00:24:28;6.50;69.60
75621;DHT22;64574;48.506;-2.750;2023-03-04T00:26:54;6.50;69.50
75621;DHT22;64574;48.506;-2.750;2023-03-04T00:29:19;6.50;69.60
75621;DHT22;64574;48.506;-2.750;2023-03-04T00:31:47;6.50;69.70
75621;DHT22;64574;48.506;-2.750;2023-03-04T00:34:12;6.40;69.90
75621;DHT22;64574;48.506;-2.750;2023-03-04T00:36:38;6.50;69.90
75621;DHT22;64574;48.506;-2.750;2023-03-04T00:39:04;6.50;69.80
75621;DHT22;64574;48.506;-2.750;2023-03-04T00:41:29;6.50;69.70
75621;DHT22;64574;48.506;-2.750;2023-03-04T00:43:55;6.50;69.80
75621;DHT22;64574;48.506;-2.750;2023-03-04T00:46:21;6.50;69.70
75621;DHT22;64574;48.506;-2.750;2023-03-04T00:48:46;6.40;70.00
75621;DHT22;64574;48.506;-2.750;2023-03-04T00:51:12;6.50;69.50
75621;DHT22;64574;48.506;-2.750;2023-03-04T00:53:37;6.50;69.50
75621;DHT22;64574;48.506;-2.750;2023-03-04T00:56:03;6.40;70.00
75621;DHT22;64574;48.506;-2.750;2023-03-04T00:58:29;6.40;69.80
75621;DHT22;64574;48.506;-2.750;2023-03-04T01:00:54;6.40;69.70
75621;DHT22;64574;48.506;-2.750;2023-03-04T01:03:20;6.50;69.50
75621;DHT22;64574;48.506;-2.750;2023-03-04T01:05:45;6.50;69.30
75621;DHT22;64574;48.506;-2.750;2023-03-04T01:08:11;6.50;69.30
75621;DHT22;64574;48.506;-2.750;2023-03-04T01:10:36;6.50;69.00
75621;DHT22;64574;48.506;-2.750;2023-03-04T01:13:02;6.50;69.00
75621;DHT22;64574;48.506;-2.750;2023-03-04T01:15:28;6.40;69.00
75621;DHT22;64574;48.506;-2.750;2023-03-04T01:17:54;6.40;69.30
75621;DHT22;64574;48.506;-2.750;2023-03-04T01:20:19;6.30;70.00
75621;DHT22;64574;48.506;-2.750;2023-03-04T01:22:45;6.20;70.30
75621;DHT22;64574;48.506;-2.750;2023-03-04T01:25:11;6.20;69.80
75621;DHT22;64574;48.506;-2.750;2023-03-04T01:27:36;6.30;69.80
75621;DHT22;64574;48.506;-2.750;2023-03-04T01:30:03;6.30;69.70
75621;DHT22;64574;48.506;-2.750;2023-03-04T01:32:29;6.30;70.00
75621;DHT22;64574;48.506;-2.750;2023-03-04T01:34:54;6.40;69.80
75621;DHT22;64574;48.506;-2.750;2023-03-04T01:37:20;6.40;69.90
75621;DHT22;64574;48.506;-2.750;2023-03-04T01:39:46;6.40;70.00
75621;DHT22;64574;48.506;-2.750;2023-03-04T01:42:21;6.30;69.70
75621;DHT22;64574;48.506;-2.750;2023-03-04T01:44:47;6.30;70.00
75621;DHT22;64574;48.506;-2.750;2023-03-04T01:47:14;6.30;70.20
75621;DHT22;64574;48.506;-2.750;2023-03-04T01:49:40;6.40;70.30
75621;DHT22;64574;48.506;-2.750;2023-03-04T01:52:11;6.40;70.20
75621;DHT22;64574;48.506;-2.750;2023-03-04T01:54:37;6.20;70.50
75621;DHT22;64574;48.506;-2.750;2023-03-04T02:00:30;6.30;70.30
75621;DHT22;64574;48.506;-2.750;2023-03-04T02:03:01;6.30;70.60
75621;DHT22;64574;48.506;-2.750;2023-03-04T02:05:29;6.30;70.60
75621;DHT22;64574;48.506;-2.750;2023-03-04T02:07:56;6.30;70.60
75621;DHT22;64574;48.506;-2.750;2023-03-04T02:10:23;6.30;70.70
75621;DHT22;64574;48.506;-2.750;2023-03-04T02:12:49;6.30;70.90
75621;DHT22;64574;48.506;-2.750;2023-03-04T02:15:15;6.20;71.20
75621;DHT22;64574;48.506;-2.750;2023-03-04T02:17:41;6.20;71.30
75621;DHT22;64574;48.506;-2.750;2023-03-04T02:20:19;6.20;71.60
75621;DHT22;64574;48.506;-2.750;2023-03-04T02:23:05;6.40;71.40
75621;DHT22;64574;48.506;-2.750;2023-03-04T02:28:22;6.40;71.20
75621;DHT22;64574;48.506;-2.750;2023-03-04T02:30:47;6.20;71.50
75621;DHT22;64574;48.506;-2.750;2023-03-04T02:33:16;6.20;71.60
75621;DHT22;64574;48.506;-2.750;2023-03-04T02:35:42;6.20;71.50
75621;DHT22;64574;48.506;-2.750;2023-03-04T02:38:09;6.20;71.80
75621;DHT22;64574;48.506;-2.750;2023-03-04T02:40:36;6.30;71.70
75621;DHT22;64574;48.506;-2.750;2023-03-04T02:43:02;6.30;71.60
75621;DHT22;64574;48.506;-2.750;2023-03-04T02:45:35;6.20;71.70
75621;DHT22;64574;48.506;-2.750;2023-03-04T02:48:02;6.20;71.80
75621;DHT22;64574;48.506;-2.750;2023-03-04T02:50:30;6.20;71.70
75621;DHT22;64574;48.506;-2.750;2023-03-04T02:52:57;6.30;71.70
75621;DHT22;64574;48.506;-2.750;2023-03-04T02:55:23;6.10;71.90
75621;DHT22;64574;48.506;-2.750;2023-03-04T02:57:48;6.20;72.00
75621;DHT22;64574;48.506;-2.750;2023-03-04T03:00:14;6.40;71.60
75621;DHT22;64574;48.506;-2.750;2023-03-04T03:02:40;6.40;71.40
75621;DHT22;64574;48.506;-2.750;2023-03-04T03:05:06;6.40;71.20
75621;DHT22;64574;48.506;-2.750;2023-03-04T03:07:32;6.30;71.40
75621;DHT22;64574;48.506;-2.750;2023-03-04T03:09:59;6.20;71.70
75621;DHT22;64574;48.506;-2.750;2023-03-04T03:12:26;6.30;71.60
75621;DHT22;64574;48.506;-2.750;2023-03-04T03:14:51;6.30;71.60
75621;DHT22;64574;48.506;-2.750;2023-03-04T03:17:17;6.30;71.50
75621;DHT22;64574;48.506;-2.750;2023-03-04T03:19:42;6.30;71.70
75621;DHT22;64574;48.506;-2.750;2023-03-04T03:22:08;6.30;71.80
75621;DHT22;64574;48.506;-2.750;2023-03-04T03:24:34;6.30;71.80
75621;DHT22;64574;48.506;-2.750;2023-03-04T03:26:59;6.40;71.80
75621;DHT22;64574;48.506;-2.750;2023-03-04T03:29:25;6.40;71.60
75621;DHT22;64574;48.506;-2.750;2023-03-04T03:31:50;6.40;71.70
75621;DHT22;64574;48.506;-2.750;2023-03-04T03:34:16;6.40;71.80
75621;DHT22;64574;48.506;-2.750;2023-03-04T03:36:42;6.40;71.60
75621;DHT22;64574;48.506;-2.750;2023-03-04T03:39:07;6.40;71.50
75621;DHT22;64574;48.506;-2.750;2023-03-04T03:41:33;6.40;71.70
75621;DHT22;64574;48.506;-2.750;2023-03-04T03:43:58;6.20;71.90
75621;DHT22;64574;48.506;-2.750;2023-03-04T03:46:24;6.20;72.10
75621;DHT22;64574;48.506;-2.750;2023-03-04T03:48:50;6.30;71.90
75621;DHT22;64574;48.506;-2.750;2023-03-04T03:51:15;6.30;72.00
75621;DHT22;64574;48.506;-2.750;2023-03-04T03:53:41;6.40;71.90
75621;DHT22;64574;48.506;-2.750;2023-03-04T03:56:06;6.30;71.80
75621;DHT22;64574;48.506;-2.750;2023-03-04T03:58:32;6.20;71.90
75621;DHT22;64574;48.506;-2.750;2023-03-04T04:00:58;6.20;72.00
75621;DHT22;64574;48.506;-2.750;2023-03-04T04:03:24;6.20;72.10
75621;DHT22;64574;48.506;-2.750;2023-03-04T04:05:49;6.20;72.10
75621;DHT22;64574;48.506;-2.750;2023-03-04T04:08:18;6.20;72.20
75621;DHT22;64574;48.506;-2.750;2023-03-04T04:10:44;6.30;72.00
75621;DHT22;64574;48.506;-2.750;2023-03-04T04:13:10;6.30;72.00
75621;DHT22;64574;48.506;-2.750;2023-03-04T04:15:36;6.40;72.00
75621;DHT22;64574;48.506;-2.750;2023-03-04T04:18:06;6.30;71.90
75621;DHT22;64574;48.506;-2.750;2023-03-04T04:20:32;6.30;72.00
75621;DHT22;64574;48.506;-2.750;2023-03-04T04:22:58;6.30;72.10
75621;DHT22;64574;48.506;-2.750;2023-03-04T04:25:24;6.30;71.90
75621;DHT22;64574;48.506;-2.750;2023-03-04T04:27:49;6.30;72.00
75621;DHT22;64574;48.506;-2.750;2023-03-04T04:30:15;6.30;71.80
75621;DHT22;64574;48.506;-2.750;2023-03-04T04:32:40;6.30;71.90
75621;DHT22;64574;48.506;-2.750;2023-03-04T04:35:07;6.30;71.90
75621;DHT22;64574;48.506;-2.750;2023-03-04T04:37:32;6.30;72.10
75621;DHT22;64574;48.506;-2.750;2023-03-04T04:39:58;6.20;72.20
75621;DHT22;64574;48.506;-2.750;2023-03-04T04:42:24;6.20;72.20
75621;DHT22;64574;48.506;-2.750;2023-03-04T04:44:50;6.30;72.20
75621;DHT22;64574;48.506;-2.750;2023-03-04T04:47:17;6.30;72.10
75621;DHT22;64574;48.506;-2.750;2023-03-04T04:49:42;6.30;72.10
75621;DHT22;64574;48.506;-2.750;2023-03-04T04:52:08;6.30;72.10
75621;DHT22;64574;48.506;-2.750;2023-03-04T04:54:33;6.20;72.20
75621;DHT22;64574;48.506;-2.750;2023-03-04T04:56:59;6.20;72.20
75621;DHT22;64574;48.506;-2.750;2023-03-04T04:59:25;6.20;72.20
75621;DHT22;64574;48.506;-2.750;2023-03-04T05:01:50;6.20;72.30
75621;DHT22;64574;48.506;-2.750;2023-03-04T05:04:16;6.20;72.30
75621;DHT22;64574;48.506;-2.750;2023-03-04T05:06:42;6.30;72.30
75621;DHT22;64574;48.506;-2.750;2023-03-04T05:09:07;6.20;72.20
75621;DHT22;64574;48.506;-2.750;2023-03-04T05:11:33;6.20;72.20
75621;DHT22;64574;48.506;-2.750;2023-03-04T05:13:59;6.10;72.10
75621;DHT22;64574;48.506;-2.750;2023-03-04T05:16:25;6.20;72.10
75621;DHT22;64574;48.506;-2.750;2023-03-04T05:18:50;6.10;71.80
75621;DHT22;64574;48.506;-2.750;2023-03-04T05:21:16;6.20;71.40
75621;DHT22;64574;48.506;-2.750;2023-03-04T05:23:42;6.20;71.10
75621;DHT22;64574;48.506;-2.750;2023-03-04T05:26:10;6.20;70.70
75621;DHT22;64574;48.506;-2.750;2023-03-04T05:28:37;6.10;70.80
75621;DHT22;64574;48.506;-2.750;2023-03-04T05:31:03;6.10;71.00
75621;DHT22;64574;48.506;-2.750;2023-03-04T05:33:29;6.10;71.30
75621;DHT22;64574;48.506;-2.750;2023-03-04T05:35:55;6.10;71.40
75621;DHT22;64574;48.506;-2.750;2023-03-04T05:38:21;6.10;71.20
75621;DHT22;64574;48.506;-2.750;2023-03-04T05:40:47;6.00;70.90
75621;DHT22;64574;48.506;-2.750;2023-03-04T05:43:14;6.10;71.20
75621;DHT22;64574;48.506;-2.750;2023-03-04T05:45:40;6.10;71.10
75621;DHT22;64574;48.506;-2.750;2023-03-04T05:48:06;6.10;71.10
75621;DHT22;64574;48.506;-2.750;2023-03-04T05:50:33;6.10;71.00
75621;DHT22;64574;48.506;-2.750;2023-03-04T05:52:59;6.10;71.00
75621;DHT22;64574;48.506;-2.750;2023-03-04T05:55:25;6.10;70.70
75621;DHT22;64574;48.506;-2.750;2023-03-04T05:57:53;6.10;70.20
75621;DHT22;64574;48.506;-2.750;2023-03-04T06:00:19;6.10;70.30
75621;DHT22;64574;48.506;-2.750;2023-03-04T06:02:44;6.00;70.10
75621;DHT22;64574;48.506;-2.750;2023-03-04T06:05:12;6.00;70.10
75621;DHT22;64574;48.506;-2.750;2023-03-04T06:07:38;6.00;70.10
75621;DHT22;64574;48.506;-2.750;2023-03-04T06:10:04;5.80;69.80
75621;DHT22;64574;48.506;-2.750;2023-03-04T06:12:30;5.90;69.90
75621;DHT22;64574;48.506;-2.750;2023-03-04T06:14:56;5.80;69.60
75621;DHT22;64574;48.506;-2.750;2023-03-04T06:17:22;5.80;70.20
75621;DHT22;64574;48.506;-2.750;2023-03-04T06:19:47;5.90;70.10
75621;DHT22;64574;48.506;-2.750;2023-03-04T06:22:13;6.00;69.80
75621;DHT22;64574;48.506;-2.750;2023-03-04T06:24:39;5.90;69.80
75621;DHT22;64574;48.506;-2.750;2023-03-04T06:27:04;5.90;69.80
75621;DHT22;64574;48.506;-2.750;2023-03-04T06:29:30;5.90;69.80
75621;DHT22;64574;48.506;-2.750;2023-03-04T06:31:56;6.00;69.80
75621;DHT22;64574;48.506;-2.750;2023-03-04T06:34:21;6.00;69.60
75621;DHT22;64574;48.506;-2.750;2023-03-04T06:36:47;5.90;69.50
75621;DHT22;64574;48.506;-2.750;2023-03-04T06:39:13;5.90;69.70
75621;DHT22;64574;48.506;-2.750;2023-03-04T06:41:39;5.90;69.70
75621;DHT22;64574;48.506;-2.750;2023-03-04T06:44:05;5.80;69.60
75621;DHT22;64574;48.506;-2.750;2023-03-04T06:46:32;5.80;69.30
75621;DHT22;64574;48.506;-2.750;2023-03-04T06:48:58;5.90;69.40
75621;DHT22;64574;48.506;-2.750;2023-03-04T06:51:24;5.90;69.20
75621;DHT22;64574;48.506;-2.750;2023-03-04T06:53:50;5.80;69.20
75621;DHT22;64574;48.506;-2.750;2023-03-04T06:56:16;5.80;69.30
75621;DHT22;64574;48.506;-2.750;2023-03-04T06:58:43;5.80;69.00
75621;DHT22;64574;48.506;-2.750;2023-03-04T07:01:17;5.80;69.00
75621;DHT22;64574;48.506;-2.750;2023-03-04T07:03:43;5.80;69.00
75621;DHT22;64574;48.506;-2.750;2023-03-04T07:06:14;5.80;69.00
75621;DHT22;64574;48.506;-2.750;2023-03-04T07:08:41;5.80;68.70
75621;DHT22;64574;48.506;-2.750;2023-03-04T07:11:07;5.80;69.00
75621;DHT22;64574;48.506;-2.750;2023-03-04T07:13:32;5.80;68.70
75621;DHT22;64574;48.506;-2.750;2023-03-04T07:16:00;5.80;68.50
75621;DHT22;64574;48.506;-2.750;2023-03-04T07:18:26;5.80;68.10
75621;DHT22;64574;48.506;-2.750;2023-03-04T07:20:52;5.80;68.20
75621;DHT22;64574;48.506;-2.750;2023-03-04T07:23:18;5.80;67.90
75621;DHT22;64574;48.506;-2.750;2023-03-04T07:25:44;5.80;67.90
75621;DHT22;64574;48.506;-2.750;2023-03-04T07:28:10;5.80;67.80
75621;DHT22;64574;48.506;-2.750;2023-03-04T07:30:35;5.80;67.50
75621;DHT22;64574;48.506;-2.750;2023-03-04T07:33:01;5.90;67.20
75621;DHT22;64574;48.506;-2.750;2023-03-04T07:35:27;5.90;67.20
75621;DHT22;64574;48.506;-2.750;2023-03-04T07:37:53;5.90;67.40
75621;DHT22;64574;48.506;-2.750;2023-03-04T07:40:19;5.90;67.10
75621;DHT22;64574;48.506;-2.750;2023-03-04T07:42:50;5.80;66.80
75621;DHT22;64574;48.506;-2.750;2023-03-04T07:45:15;5.90;67.00
75621;DHT22;64574;48.506;-2.750;2023-03-04T07:47:41;5.90;67.10
75621;DHT22;64574;48.506;-2.750;2023-03-04T07:50:08;5.90;66.90
75621;DHT22;64574;48.506;-2.750;2023-03-04T07:52:41;5.90;67.20
75621;DHT22;64574;48.506;-2.750;2023-03-04T07:55:08;5.90;67.20
75621;DHT22;64574;48.506;-2.750;2023-03-04T07:57:37;5.90;67.30
75621;DHT22;64574;48.506;-2.750;2023-03-04T08:00:03;6.00;67.00
75621;DHT22;64574;48.506;-2.750;2023-03-04T08:02:28;6.00;66.90
75621;DHT22;64574;48.506;-2.750;2023-03-04T08:04:54;6.00;66.90
75621;DHT22;64574;48.506;-2.750;2023-03-04T08:07:20;6.10;66.30
75621;DHT22;64574;48.506;-2.750;2023-03-04T08:09:46;6.10;65.90
75621;DHT22;64574;48.506;-2.750;2023-03-04T08:12:11;6.00;65.50
75621;DHT22;64574;48.506;-2.750;2023-03-04T08:14:37;5.90;65.00
75621;DHT22;64574;48.506;-2.750;2023-03-04T08:17:03;5.90;64.50
75621;DHT22;64574;48.506;-2.750;2023-03-04T08:19:29;6.00;64.80
75621;DHT22;64574;48.506;-2.750;2023-03-04T08:21:55;6.00;64.80
75621;DHT22;64574;48.506;-2.750;2023-03-04T08:24:21;6.00;64.70
75621;DHT22;64574;48.506;-2.750;2023-03-04T08:26:48;6.00;65.00
75621;DHT22;64574;48.506;-2.750;2023-03-04T08:29:18;6.10;65.00
75621;DHT22;64574;48.506;-2.750;2023-03-04T08:31:46;6.30;64.70
75621;DHT22;64574;48.506;-2.750;2023-03-04T08:34:12;6.20;64.70
75621;DHT22;64574;48.506;-2.750;2023-03-04T08:36:40;6.30;64.80
75621;DHT22;64574;48.506;-2.750;2023-03-04T08:39:07;6.30;64.70
75621;DHT22;64574;48.506;-2.750;2023-03-04T08:41:34;6.20;64.50
75621;DHT22;64574;48.506;-2.750;2023-03-04T08:44:00;6.30;64.60
75621;DHT22;64574;48.506;-2.750;2023-03-04T08:46:26;6.40;64.50
75621;DHT22;64574;48.506;-2.750;2023-03-04T08:48:52;6.30;64.80
75621;DHT22;64574;48.506;-2.750;2023-03-04T08:51:18;6.20;65.00
75621;DHT22;64574;48.506;-2.750;2023-03-04T08:53:44;6.30;64.80
75621;DHT22;64574;48.506;-2.750;2023-03-04T08:56:11;6.40;64.60
75621;DHT22;64574;48.506;-2.750;2023-03-04T08:58:37;6.30;64.70
75621;DHT22;64574;48.506;-2.750;2023-03-04T09:01:03;6.50;64.70
75621;DHT22;64574;48.506;-2.750;2023-03-04T09:03:29;6.50;64.70
75621;DHT22;64574;48.506;-2.750;2023-03-04T09:05:55;6.60;64.60
75621;DHT22;64574;48.506;-2.750;2023-03-04T09:08:21;6.60;64.50
75621;DHT22;64574;48.506;-2.750;2023-03-04T09:10:51;6.70;64.30
75621;DHT22;64574;48.506;-2.750;2023-03-04T09:13:18;6.70;64.30
75621;DHT22;64574;48.506;-2.750;2023-03-04T09:15:48;6.60;64.30
75621;DHT22;64574;48.506;-2.750;2023-03-04T09:18:14;6.60;64.20
75621;DHT22;64574;48.506;-2.750;2023-03-04T09:20:40;6.60;64.00
75621;DHT22;64574;48.506;-2.750;2023-03-04T09:23:06;6.70;63.40
75621;DHT22;64574;48.506;-2.750;2023-03-04T09:25:35;6.50;63.50
75621;DHT22;64574;48.506;-2.750;2023-03-04T09:28:00;6.50;63.50
75621;DHT22;64574;48.506;-2.750;2023-03-04T09:30:26;6.40;63.70
75621;DHT22;64574;48.506;-2.750;2023-03-04T09:32:52;6.30;64.20
75621;DHT22;64574;48.506;-2.750;2023-03-04T09:35:18;6.50;64.40
75621;DHT22;64574;48.506;-2.750;2023-03-04T09:37:44;6.60;64.00
75621;DHT22;64574;48.506;-2.750;2023-03-04T09:40:18;6.60;64.00
75621;DHT22;64574;48.506;-2.750;2023-03-04T09:42:47;6.50;64.00
75621;DHT22;64574;48.506;-2.750;2023-03-04T09:45:20;6.50;64.70
75621;DHT22;64574;48.506;-2.750;2023-03-04T09:47:48;6.60;64.60
75621;DHT22;64574;48.506;-2.750;2023-03-04T09:50:17;6.60;64.20
75621;DHT22;64574;48.506;-2.750;2023-03-04T09:55:43;6.90;63.70
75621;DHT22;64574;48.506;-2.750;2023-03-04T10:01:00;7.00;63.60
75621;DHT22;64574;48.506;-2.750;2023-03-04T10:03:42;7.00;63.70
75621;DHT22;64574;48.506;-2.750;2023-03-04T10:06:15;7.00;63.50
75621;DHT22;64574;48.506;-2.750;2023-03-04T10:08:47;7.00;63.70
75621;DHT22;64574;48.506;-2.750;2023-03-04T10:11:22;7.00;64.00
75621;DHT22;64574;48.506;-2.750;2023-03-04T10:14:16;7.00;64.00
75621;DHT22;64574;48.506;-2.750;2023-03-04T10:16:54;7.10;64.00
75621;DHT22;64574;48.506;-2.750;2023-03-04T10:19:27;7.00;64.00
75621;DHT22;64574;48.506;-2.750;2023-03-04T10:21:54;7.20;64.10
75621;DHT22;64574;48.506;-2.750;2023-03-04T10:24:24;7.20;64.00
75621;DHT22;64574;48.506;-2.750;2023-03-04T10:26:55;7.10;64.20
75621;DHT22;64574;48.506;-2.750;2023-03-04T10:29:23;7.20;64.00
75621;DHT22;64574;48.506;-2.750;2023-03-04T10:31:50;7.20;63.90
75621;DHT22;64574;48.506;-2.750;2023-03-04T10:34:16;7.20;63.60
75621;DHT22;64574;48.506;-2.750;2023-03-04T10:37:02;7.20;63.20
75621;DHT22;64574;48.506;-2.750;2023-03-04T10:39:35;7.20;63.20
75621;DHT22;64574;48.506;-2.750;2023-03-04T10:42:21;7.20;63.50
75621;DHT22;64574;48.506;-2.750;2023-03-04T10:44:56;7.20;63.60
75621;DHT22;64574;48.506;-2.750;2023-03-04T10:47:26;7.20;63.70
75621;DHT22;64574;48.506;-2.750;2023-03-04T10:49:55;7.20;63.30
75621;DHT22;64574;48.506;-2.750;2023-03-04T10:52:45;7.20;63.90
75621;DHT22;64574;48.506;-2.750;2023-03-04T10:55:30;7.10;63.90
75621;DHT22;64574;48.506;-2.750;2023-03-04T10:58:06;7.00;63.80
75621;DHT22;64574;48.506;-2.750;2023-03-04T11:00:37;7.00;63.90
75621;DHT22;64574;48.506;-2.750;2023-03-04T11:03:24;7.20;63.70
75621;DHT22;64574;48.506;-2.750;2023-03-04T11:05:51;7.20;63.60
75621;DHT22;64574;48.506;-2.750;2023-03-04T11:08:20;7.00;64.40
75621;DHT22;64574;48.506;-2.750;2023-03-04T11:10:47;7.00;64.20
75621;DHT22;64574;48.506;-2.750;2023-03-04T11:13:18;7.10;64.10
75621;DHT22;64574;48.506;-2.750;2023-03-04T11:16:05;7.10;64.30
75621;DHT22;64574;48.506;-2.750;2023-03-04T11:18:51;7.20;63.90
75621;DHT22;64574;48.506;-2.750;2023-03-04T11:21:20;7.10;63.70
75621;DHT22;64574;48.506;-2.750;2023-03-04T11:26:25;7.00;63.80
75621;DHT22;64574;48.506;-2.750;2023-03-04T11:28:58;7.00;63.70
75621;DHT22;64574;48.506;-2.750;2023-03-04T11:31:32;7.00;63.80
75621;DHT22;64574;48.506;-2.750;2023-03-04T11:36:52;7.20;63.90
75621;DHT22;64574;48.506;-2.750;2023-03-04T11:44:51;7.40;63.40
75621;DHT22;64574;48.506;-2.750;2023-03-04T11:47:20;7.20;63.60
75621;DHT22;64574;48.506;-2.750;2023-03-04T12:06:03;7.20;63.70
75621;DHT22;64574;48.506;-2.750;2023-03-04T12:11:33;7.50;63.30
75621;DHT22;64574;48.506;-2.750;2023-03-04T12:22:44;7.10;62.80
75621;DHT22;64574;48.506;-2.750;2023-03-04T12:25:36;7.10;63.40
75621;DHT22;64574;48.506;-2.750;2023-03-04T12:42:18;7.10;66.00
75621;DHT22;64574;48.506;-2.750;2023-03-04T12:48:30;6.90;66.80
75621;DHT22;64574;48.506;-2.750;2023-03-04T12:56:25;6.90;66.90
75621;DHT22;64574;48.506;-2.750;2023-03-04T12:58:53;7.10;66.30
75621;DHT22;64574;48.506;-2.750;2023-03-04T13:01:38;7.00;66.40
75621;DHT22;64574;48.506;-2.750;2023-03-04T13:07:17;6.90;67.20
75621;DHT22;64574;48.506;-2.750;2023-03-04T13:09:56;7.00;67.20
75621;DHT22;64574;48.506;-2.750;2023-03-04T13:12:23;6.90;67.20
75621;DHT22;64574;48.506;-2.750;2023-03-04T13:17:39;7.00;66.50
75621;DHT22;64574;48.506;-2.750;2023-03-04T13:20:32;7.10;66.20
75621;DHT22;64574;48.506;-2.750;2023-03-04T13:25:45;7.20;64.50
75621;DHT22;64574;48.506;-2.750;2023-03-04T13:43:56;7.20;64.70
75621;DHT22;64574;48.506;-2.750;2023-03-04T13:51:36;7.20;64.60
75621;DHT22;64574;48.506;-2.750;2023-03-04T13:54:12;7.10;65.10
75621;DHT22;64574;48.506;-2.750;2023-03-04T13:56:46;7.10;66.00
75621;DHT22;64574;48.506;-2.750;2023-03-04T13:59:20;7.30;65.50
75621;DHT22;64574;48.506;-2.750;2023-03-04T14:06:46;6.90;65.80
75621;DHT22;64574;48.506;-2.750;2023-03-04T14:09:14;7.10;65.40
75621;DHT22;64574;48.506;-2.750;2023-03-04T14:11:41;7.00;65.00
75621;DHT22;64574;48.506;-2.750;2023-03-04T14:14:17;7.00;64.80
75621;DHT22;64574;48.506;-2.750;2023-03-04T14:17:05;7.10;64.10
75621;DHT22;64574;48.506;-2.750;2023-03-04T14:19:42;7.00;64.20
75621;DHT22;64574;48.506;-2.750;2023-03-04T14:22:24;7.20;64.10
75621;DHT22;64574;48.506;-2.750;2023-03-04T14:25:14;7.20;64.40
75621;DHT22;64574;48.506;-2.750;2023-03-04T14:27:44;7.20;65.00
75621;DHT22;64574;48.506;-2.750;2023-03-04T14:30:23;7.20;65.00
75621;DHT22;64574;48.506;-2.750;2023-03-04T14:32:51;7.20;65.70
75621;DHT22;64574;48.506;-2.750;2023-03-04T14:35:28;7.00;65.70
75621;DHT22;64574;48.506;-2.750;2023-03-04T14:41:00;7.00;65.30
75621;DHT22;64574;48.506;-2.750;2023-03-04T14:43:28;7.20;64.90
75621;DHT22;64574;48.506;-2.750;2023-03-04T14:45:57;7.10;65.00
75621;DHT22;64574;48.506;-2.750;2023-03-04T14:48:27;7.20;65.00
75621;DHT22;64574;48.506;-2.750;2023-03-04T14:50:56;7.00;64.50
75621;DHT22;64574;48.506;-2.750;2023-03-04T14:53:27;7.10;64.60
75621;DHT22;64574;48.506;-2.750;2023-03-04T14:56:07;7.00;65.00
75621;DHT22;64574;48.506;-2.750;2023-03-04T14:58:51;7.20;63.70
75621;DHT22;64574;48.506;-2.750;2023-03-04T15:01:21;7.20;63.50
75621;DHT22;64574;48.506;-2.750;2023-03-04T15:04:08;7.20;63.30
75621;DHT22;64574;48.506;-2.750;2023-03-04T15:06:47;7.00;63.80
75621;DHT22;64574;48.506;-2.750;2023-03-04T15:09:24;6.80;64.20
75621;DHT22;64574;48.506;-2.750;2023-03-04T15:12:03;7.00;64.00
75621;DHT22;64574;48.506;-2.750;2023-03-04T15:17:35;6.80;64.10
75621;DHT22;64574;48.506;-2.750;2023-03-04T15:25:14;6.80;63.50
75621;DHT22;64574;48.506;-2.750;2023-03-04T15:27:41;6.90;63.70
75621;DHT22;64574;48.506;-2.750;2023-03-04T15:30:27;6.90;63.80
75621;DHT22;64574;48.506;-2.750;2023-03-04T15:32:57;7.00;64.00
75621;DHT22;64574;48.506;-2.750;2023-03-04T15:35:24;7.00;63.80
75621;DHT22;64574;48.506;-2.750;2023-03-04T15:37:51;7.00;64.10
75621;DHT22;64574;48.506;-2.750;2023-03-04T15:40:24;7.00;64.10
75621;DHT22;64574;48.506;-2.750;2023-03-04T15:42:50;7.00;64.50
75621;DHT22;64574;48.506;-2.750;2023-03-04T15:45:25;6.80;65.00
75621;DHT22;64574;48.506;-2.750;2023-03-04T15:47:51;6.90;65.40
75621;DHT22;64574;48.506;-2.750;2023-03-04T15:50:18;6.90;64.70
75621;DHT22;64574;48.506;-2.750;2023-03-04T15:52:44;6.80;64.30
75621;DHT22;64574;48.506;-2.750;2023-03-04T15:55:17;6.80;64.60
75621;DHT22;64574;48.506;-2.750;2023-03-04T15:57:46;6.80;64.20
75621;DHT22;64574;48.506;-2.750;2023-03-04T16:00:13;6.60;64.50
75621;DHT22;64574;48.506;-2.750;2023-03-04T16:02:38;6.60;64.50
75621;DHT22;64574;48.506;-2.750;2023-03-04T16:05:05;6.60;64.40
75621;DHT22;64574;48.506;-2.750;2023-03-04T16:07:31;6.60;63.60
75621;DHT22;64574;48.506;-2.750;2023-03-04T16:10:00;6.70;63.40
75621;DHT22;64574;48.506;-2.750;2023-03-04T16:12:28;6.70;63.60
75621;DHT22;64574;48.506;-2.750;2023-03-04T16:14:54;6.80;63.70
75621;DHT22;64574;48.506;-2.750;2023-03-04T16:17:19;6.80;63.80
75621;DHT22;64574;48.506;-2.750;2023-03-04T16:19:45;6.70;63.70
75621;DHT22;64574;48.506;-2.750;2023-03-04T16:22:22;6.70;63.90
75621;DHT22;64574;48.506;-2.750;2023-03-04T16:24:50;6.60;63.90
75621;DHT22;64574;48.506;-2.750;2023-03-04T16:27:17;6.60;63.40
75621;DHT22;64574;48.506;-2.750;2023-03-04T16:29:44;6.70;63.20
75621;DHT22;64574;48.506;-2.750;2023-03-04T16:32:10;6.70;62.80
75621;DHT22;64574;48.506;-2.750;2023-03-04T16:34:35;6.60;62.60
75621;DHT22;64574;48.506;-2.750;2023-03-04T16:37:06;6.60;62.60
75621;DHT22;64574;48.506;-2.750;2023-03-04T16:39:36;6.70;62.80
75621;DHT22;64574;48.506;-2.750;2023-03-04T16:42:02;6.90;62.10
75621;DHT22;64574;48.506;-2.750;2023-03-04T16:44:28;6.70;62.20
75621;DHT22;64574;48.506;-2.750;2023-03-04T16:46:54;6.80;62.40
75621;DHT22;64574;48.506;-2.750;2023-03-04T16:49:19;6.80;62.50
75621;DHT22;64574;48.506;-2.750;2023-03-04T16:51:47;6.80;62.60
75621;DHT22;64574;48.506;-2.750;2023-03-04T16:54:26;6.80;62.30
75621;DHT22;64574;48.506;-2.750;2023-03-04T16:56:52;6.80;62.00
75621;DHT22;64574;48.506;-2.750;2023-03-04T16:59:18;6.70;61.40
75621;DHT22;64574;48.506;-2.750;2023-03-04T17:01:43;6.60;60.20
75621;DHT22;64574;48.506;-2.750;2023-03-04T17:04:09;6.70;60.00
75621;DHT22;64574;48.506;-2.750;2023-03-04T17:06:34;6.70;59.10
75621;DHT22;64574;48.506;-2.750;2023-03-04T17:09:06;6.70;58.60
75621;DHT22;64574;48.506;-2.750;2023-03-04T17:11:32;6.80;58.60
75621;DHT22;64574;48.506;-2.750;2023-03-04T17:13:58;6.80;58.60
75621;DHT22;64574;48.506;-2.750;2023-03-04T17:16:23;6.80;59.10
75621;DHT22;64574;48.506;-2.750;2023-03-04T17:18:49;6.70;59.00
75621;DHT22;64574;48.506;-2.750;2023-03-04T17:21:18;6.70;59.30
75621;DHT22;64574;48.506;-2.750;2023-03-04T17:23:44;6.80;59.30
75621;DHT22;64574;48.506;-2.750;2023-03-04T17:26:10;6.70;59.30
75621;DHT22;64574;48.506;-2.750;2023-03-04T17:28:37;6.80;59.30
75621;DHT22;64574;48.506;-2.750;2023-03-04T17:31:13;6.70;59.30
75621;DHT22;64574;48.506;-2.750;2023-03-04T17:33:39;6.70;59.50
75621;DHT22;64574;48.506;-2.750;2023-03-04T17:36:06;6.70;59.40